createdAt,value
2022-12-03T00:01:22.478Z,101473.44
2022-12-03T00:03:50.296Z,101479.91
2022-12-03T00:06:18.998Z,101480.66
2022-12-03T00:08:46.742Z,101476.22
2022-12-03T00:11:14.424Z,101485.87
2022-12-03T00:13:42.053Z,101468.05
2022-12-03T00:16:09.801Z,101469.81
2022-12-03T00:18:37.621Z,101475.47
2022-12-03T00:21:05.438Z,101475.47
2022-12-03T00:23:37.100Z,101475.08
2022-12-03T00:26:08.122Z,101473.41
2022-12-03T00:28:35.760Z,101468.57
2022-12-03T00:31:03.507Z,101471.77
2022-12-03T00:33:31.364Z,101466.61
2022-12-03T00:35:59.051Z,101469.09
2022-12-03T00:38:26.692Z,101472.27
2022-12-03T00:40:54.541Z,101473.05
2022-12-03T00:43:22.239Z,101481.16
2022-12-03T00:45:49.907Z,101475.50
2022-12-03T00:48:17.658Z,101479.49
2022-12-03T00:50:45.331Z,101474.65
2022-12-03T00:53:12.973Z,101469.02
2022-12-03T00:55:40.639Z,101479.95
2022-12-03T00:58:09.659Z,101482.37
2022-12-03T01:00:38.049Z,101474.72
2022-12-03T01:03:05.928Z,101476.32
2022-12-03T01:05:33.593Z,101485.18
2022-12-03T01:08:01.233Z,101483.16
2022-12-03T01:10:28.863Z,101488.78
2022-12-03T01:12:56.567Z,101492.44
2022-12-03T01:15:24.274Z,101483.16
2022-12-03T01:17:51.968Z,101493.62
2022-12-03T01:20:19.844Z,101489.14
2022-12-03T01:22:47.512Z,101487.53
2022-12-03T01:25:15.299Z,101485.18
2022-12-03T01:27:42.974Z,101487.63
2022-12-03T01:30:13.184Z,101488.45
2022-12-03T01:32:40.837Z,101484.82
2022-12-03T01:35:08.733Z,101488.41
2022-12-03T01:37:36.380Z,101487.27
2022-12-03T01:40:05.668Z,101487.63
2022-12-03T01:42:37.996Z,101486.91
2022-12-03T01:45:06.462Z,101484.10
2022-12-03T01:47:39.016Z,101482.47
2022-12-03T01:50:20.508Z,101482.50
2022-12-03T01:52:48.396Z,101483.38
2022-12-03T01:55:20.909Z,101476.52
2022-12-03T01:57:52.486Z,101484.92
2022-12-03T02:00:23.313Z,101488.55
2022-12-03T02:02:54.338Z,101491.39
2022-12-03T02:05:25.171Z,101490.94
2022-12-03T02:07:53.413Z,101488.55
2022-12-03T02:10:27.763Z,101486.45
2022-12-03T02:13:09.059Z,101486.03
2022-12-03T02:15:39.253Z,101489.23
2022-12-03T02:18:09.101Z,101481.88
2022-12-03T02:20:46.956Z,101483.94
2022-12-03T02:23:30.544Z,101486.29
2022-12-03T02:25:58.334Z,101493.12
2022-12-03T02:28:26.300Z,101489.07
2022-12-03T02:30:54.156Z,101485.77
2022-12-03T02:33:22.034Z,101498.26
2022-12-03T02:35:50.064Z,101499.47
2022-12-03T02:38:21.231Z,101501.47
2022-12-03T02:40:52.744Z,101495.80
2022-12-03T02:43:22.750Z,101495.77
2022-12-03T02:45:56.393Z,101492.96
2022-12-03T02:48:36.080Z,101483.25
2022-12-03T02:51:07.537Z,101486.20
2022-12-03T02:53:45.766Z,101489.92
2022-12-03T02:56:17.130Z,101492.77
2022-12-03T02:58:48.145Z,101490.34
2022-12-03T03:01:19.456Z,101497.67
2022-12-03T03:03:49.871Z,101506.96
2022-12-03T03:06:20.133Z,101507.32
2022-12-03T03:08:47.861Z,101507.74
2022-12-03T03:11:15.593Z,101506.53
2022-12-03T03:13:43.469Z,101491.13
2022-12-03T03:16:11.331Z,101486.65
2022-12-03T03:18:39.267Z,101478.94
2022-12-03T03:21:07.571Z,101472.43
2022-12-03T03:23:35.661Z,101479.62
2022-12-03T03:26:11.105Z,101478.77
2022-12-03T03:28:41.676Z,101491.66
2022-12-03T03:31:12.338Z,101489.56
2022-12-03T03:33:42.661Z,101506.11
2022-12-03T03:36:10.985Z,101501.66
2022-12-03T03:38:40.223Z,101504.93
2022-12-03T03:41:10.392Z,101493.62
2022-12-03T03:43:40.236Z,101496.04
2022-12-03T03:46:08.629Z,101504.05
2022-12-03T03:48:36.970Z,101500.02
2022-12-03T03:51:09.845Z,101489.10
2022-12-03T03:53:43.940Z,101493.59
2022-12-03T03:56:12.083Z,101487.21
2022-12-03T03:58:39.979Z,101487.21
2022-12-03T04:01:08.397Z,101487.24
2022-12-03T04:03:36.625Z,101485.31
2022-12-03T04:06:04.543Z,101475.63
2022-12-03T04:08:32.750Z,101479.72
2022-12-03T04:11:19.300Z,101476.55
2022-12-03T04:13:46.979Z,101485.51
2022-12-03T04:16:14.669Z,101478.70
2022-12-03T04:18:45.321Z,101482.37
2022-12-03T04:21:39.099Z,101494.92
2022-12-03T04:24:08.188Z,101493.32
2022-12-03T04:26:54.358Z,101489.70
2022-12-03T04:29:22.806Z,101481.65
2022-12-03T04:32:09.168Z,101486.55
2022-12-03T04:34:56.059Z,101492.21
2022-12-03T04:37:23.936Z,101490.18
2022-12-03T04:39:51.693Z,101495.05
2022-12-03T04:42:19.419Z,101493.45
2022-12-03T04:44:47.110Z,101497.51
2022-12-03T04:47:20.761Z,101485.41
2022-12-03T04:49:52.648Z,101495.94
2022-12-03T04:52:22.028Z,101490.28
2022-12-03T04:54:49.709Z,101488.26
2022-12-03T04:57:17.525Z,101489.50
2022-12-03T04:59:45.150Z,101495.19
2022-12-03T05:02:12.802Z,101502.45
2022-12-03T05:04:40.505Z,101499.24
2022-12-03T05:07:08.096Z,101500.02
2022-12-03T05:09:35.725Z,101499.63
2022-12-03T05:12:03.395Z,101496.79
2022-12-03T05:14:31.075Z,101504.02
2022-12-03T05:16:58.749Z,101500.74
2022-12-03T05:19:46.391Z,101503.95
2022-12-03T05:22:14.045Z,101503.91
2022-12-03T05:24:41.685Z,101501.86
2022-12-03T05:27:09.442Z,101503.88
2022-12-03T05:29:37.065Z,101501.83
2022-12-03T05:32:05.690Z,101497.80
2022-12-03T05:34:33.333Z,101497.02
2022-12-03T05:37:00.940Z,101496.20
2022-12-03T05:39:28.596Z,101495.02
2022-12-03T05:42:14.799Z,101491.00
2022-12-03T05:44:42.515Z,101493.09
2022-12-03T05:47:10.203Z,101491.88
2022-12-03T05:49:37.869Z,101502.74
2022-12-03T05:52:05.935Z,101491.03
2022-12-03T05:54:33.633Z,101490.67
2022-12-03T05:57:01.248Z,101489.43
2022-12-03T05:59:28.863Z,101486.59
2022-12-03T06:01:56.712Z,101488.98
2022-12-03T06:04:24.323Z,101494.20
2022-12-03T06:06:51.937Z,101492.57
2022-12-03T06:09:19.525Z,101492.57
2022-12-03T06:11:47.207Z,101488.09
2022-12-03T06:14:14.932Z,101476.38
2022-12-03T06:16:42.630Z,101482.76
2022-12-03T06:19:10.268Z,101478.70
2022-12-03T06:21:37.896Z,101489.59
2022-12-03T06:24:05.695Z,101481.88
2022-12-03T06:26:33.280Z,101479.36
2022-12-03T06:29:00.980Z,101468.83
2022-12-03T06:31:29.210Z,101472.82
2022-12-03T06:33:56.850Z,101477.59
2022-12-03T06:36:24.557Z,101475.89
2022-12-03T06:38:52.253Z,101476.65
2022-12-03T06:41:19.874Z,101472.59
2022-12-03T06:43:47.601Z,101471.71
2022-12-03T06:46:15.261Z,101469.26
2022-12-03T06:48:42.969Z,101466.87
2022-12-03T06:51:10.625Z,101458.76
2022-12-03T06:53:38.281Z,101463.66
2022-12-03T06:56:06.233Z,101465.30
2022-12-03T06:58:33.900Z,101466.90
2022-12-03T07:01:01.563Z,101462.03
2022-12-03T07:03:29.208Z,101469.71
2022-12-03T07:05:56.923Z,101470.50
2022-12-03T07:08:24.579Z,101474.13
2022-12-03T07:10:52.265Z,101476.94
2022-12-03T07:13:19.904Z,101477.79
2022-12-03T07:15:47.698Z,101483.05
2022-12-03T07:18:15.438Z,101482.66
2022-12-03T07:20:43.029Z,101486.33
2022-12-03T07:23:10.722Z,101476.68
2022-12-03T07:25:38.585Z,101479.98
2022-12-03T07:28:06.421Z,101487.24
2022-12-03T07:30:34.169Z,101480.02
2022-12-03T07:33:01.779Z,101481.19
2022-12-03T07:35:29.442Z,101472.66
2022-12-03T07:37:57.071Z,101472.66
2022-12-03T07:40:24.727Z,101477.92
2022-12-03T07:42:52.364Z,101481.13
2022-12-03T07:45:19.983Z,101463.83
2022-12-03T07:47:47.551Z,101458.98
2022-12-03T07:50:15.252Z,101463.47
2022-12-03T07:52:42.871Z,101456.70
2022-12-03T07:55:12.688Z,101453.49
2022-12-03T07:57:40.700Z,101454.67
2022-12-03T08:00:08.907Z,101468.41
2022-12-03T08:02:37.717Z,101465.16
2022-12-03T08:05:05.768Z,101456.60
2022-12-03T08:07:33.514Z,101453.76
2022-12-03T08:10:01.288Z,101471.02
2022-12-03T08:12:46.793Z,101467.00
2022-12-03T08:15:19.189Z,101461.73
2022-12-03T08:17:52.604Z,101473.44
2022-12-03T08:20:22.655Z,101471.80
2022-12-03T08:22:54.443Z,101472.59
2022-12-03T08:25:26.681Z,101482.27
2022-12-03T08:27:59.044Z,101476.65
2022-12-03T08:30:26.688Z,101478.25
2022-12-03T08:32:54.841Z,101474.55
2022-12-03T08:35:25.332Z,101474.91
2022-12-03T08:38:12.328Z,101478.09
2022-12-03T08:40:46.705Z,101471.15
2022-12-03T08:43:26.541Z,101463.80
2022-12-03T08:45:56.473Z,101465.69
2022-12-03T08:48:44.050Z,101468.08
2022-12-03T08:51:22.414Z,101469.29
2022-12-03T08:53:58.141Z,101461.21
2022-12-03T08:56:30.600Z,101466.80
2022-12-03T08:59:21.207Z,101463.50
2022-12-03T09:01:50.236Z,101458.27
2022-12-03T09:04:32.004Z,101463.89
2022-12-03T09:06:59.924Z,101456.96
2022-12-03T09:09:27.999Z,101458.56
2022-12-03T09:11:56.214Z,101446.92
2022-12-03T09:14:24.668Z,101455.78
2022-12-03T09:16:56.698Z,101460.23
2022-12-03T09:19:26.608Z,101452.94
2022-12-03T09:21:55.662Z,101459.05
2022-12-03T09:24:24.195Z,101459.05
2022-12-03T09:26:52.016Z,101461.44
2022-12-03T09:29:19.695Z,101460.66
2022-12-03T09:31:47.429Z,101461.48
2022-12-03T09:34:15.157Z,101461.87
2022-12-03T09:36:42.780Z,101460.16
2022-12-03T09:39:10.444Z,101455.65
2022-12-03T09:41:38.250Z,101449.93
2022-12-03T09:44:08.652Z,101449.87
2022-12-03T09:46:40.799Z,101451.40
2022-12-03T09:49:15.848Z,101448.52
2022-12-03T09:51:45.630Z,101445.25
2022-12-03T09:54:25.488Z,101439.14
2022-12-03T09:56:55.096Z,101436.62
2022-12-03T09:59:24.711Z,101426.87
2022-12-03T10:01:54.212Z,101426.16
2022-12-03T10:04:22.229Z,101425.73
2022-12-03T10:06:50.049Z,101422.79
2022-12-03T10:09:24.684Z,101414.58
2022-12-03T10:11:52.556Z,101423.54
2022-12-03T10:14:21.160Z,101422.79
2022-12-03T10:16:49.410Z,101420.40
2022-12-03T10:19:24.501Z,101423.21
2022-12-03T10:21:52.484Z,101411.02
2022-12-03T10:24:31.708Z,101402.48
2022-12-03T10:27:02.172Z,101410.49
2022-12-03T10:29:34.284Z,101396.30
2022-12-03T10:32:09.683Z,101384.20
2022-12-03T10:34:39.289Z,101383.84
2022-12-03T10:37:21.153Z,101387.90
2022-12-03T10:39:56.196Z,101386.63
2022-12-03T10:42:25.348Z,101393.42
2022-12-03T10:45:18.196Z,101383.32
2022-12-03T10:48:04.821Z,101380.09
2022-12-03T10:50:32.765Z,101368.70
2022-12-03T10:53:00.585Z,101360.56
2022-12-03T10:55:30.798Z,101359.74
2022-12-03T10:57:58.629Z,101363.77
2022-12-03T11:00:26.461Z,101356.80
2022-12-03T11:02:56.972Z,101345.45
2022-12-03T11:06:52.856Z,101350.12
2022-12-03T11:09:28.349Z,101342.58
2022-12-03T11:11:56.246Z,101338.13
2022-12-03T11:15:07.233Z,101339.37
2022-12-03T11:17:45.762Z,101324.75
2022-12-03T11:20:22.550Z,101333.26
2022-12-03T11:23:01.004Z,101336.16
2022-12-03T11:25:28.667Z,101327.66
2022-12-03T11:28:11.494Z,101326.36
2022-12-03T11:31:03.303Z,101321.94
2022-12-03T11:33:32.177Z,101325.93
2022-12-03T11:36:05.572Z,101323.15
2022-12-03T11:38:39.397Z,101321.94
2022-12-03T11:41:19.734Z,101332.02
2022-12-03T11:43:53.477Z,101319.55
2022-12-03T11:46:25.094Z,101315.40
2022-12-03T11:48:55.965Z,101310.95
2022-12-03T11:51:26.292Z,101310.46
2022-12-03T11:53:57.577Z,101307.29
2022-12-03T11:56:28.659Z,101301.24
2022-12-03T11:59:04.937Z,101300.06
2022-12-03T12:01:38.592Z,101304.09
2022-12-03T12:04:08.189Z,101302.84
2022-12-03T12:06:50.166Z,101305.16
2022-12-03T12:09:54.017Z,101295.00
2022-12-03T12:12:37.870Z,101285.68
2022-12-03T12:15:39.489Z,101279.95
2022-12-03T12:18:38.058Z,101273.94
2022-12-03T12:21:48.699Z,101275.60
2022-12-03T12:24:46.909Z,101280.41
2022-12-03T12:27:18.039Z,101273.94
2022-12-03T12:29:51.325Z,101263.48
2022-12-03T12:32:24.222Z,101263.08
2022-12-03T12:34:55.055Z,101264.26
2022-12-03T12:37:31.788Z,101280.77
2022-12-03T12:39:59.750Z,101266.16
2022-12-03T12:42:31.892Z,101267.40
2022-12-03T12:45:21.695Z,101256.05
2022-12-03T12:47:54.806Z,101254.02
2022-12-03T12:50:22.593Z,101260.40
2022-12-03T12:52:53.918Z,101253.56
2022-12-03T12:55:23.918Z,101248.37
2022-12-03T12:57:52.216Z,101253.56
2022-12-03T13:00:24.599Z,101257.59
2022-12-03T13:02:57.900Z,101259.62
2022-12-03T13:05:28.885Z,101253.14
2022-12-03T13:07:57.081Z,101247.91
2022-12-03T13:10:33.823Z,101253.14
2022-12-03T13:13:44.537Z,101238.20
2022-12-03T13:16:24.369Z,101237.02
2022-12-03T13:18:56.763Z,101241.47
2022-12-03T13:21:34.997Z,101240.23
2022-12-03T13:24:03.219Z,101244.28
2022-12-03T13:26:38.165Z,101240.29
2022-12-03T13:29:16.626Z,101235.09
2022-12-03T13:31:53.164Z,101230.25
2022-12-03T13:34:24.464Z,101225.05
2022-12-03T13:36:57.999Z,101222.63
2022-12-03T13:39:33.434Z,101217.40
2022-12-03T13:42:35.603Z,101225.61
2022-12-03T13:45:07.717Z,101235.29
2022-12-03T13:47:35.394Z,101232.57
2022-12-03T13:50:11.240Z,101234.99
2022-12-03T13:52:39.020Z,101239.05
2022-12-03T13:55:12.237Z,101233.39
2022-12-03T13:57:39.950Z,101228.98
2022-12-03T14:00:08.330Z,101224.89
2022-12-03T14:02:36.128Z,101229.34
2022-12-03T14:05:04.251Z,101230.97
2022-12-03T14:07:31.997Z,101229.37
2022-12-03T14:09:59.740Z,101226.13
2022-12-03T14:12:27.425Z,101229.37
2022-12-03T14:14:55.599Z,101218.87
2022-12-03T14:17:23.301Z,101214.42
2022-12-03T14:19:51.190Z,101224.89
2022-12-03T14:22:20.580Z,101230.41
2022-12-03T14:24:48.249Z,101221.55
2022-12-03T14:27:15.950Z,101220.31
2022-12-03T14:29:43.674Z,101234.47
2022-12-03T14:32:11.397Z,101231.62
2022-12-03T14:34:39.187Z,101222.40
2022-12-03T14:37:06.929Z,101231.49
2022-12-03T14:39:34.516Z,101222.70
2022-12-03T14:42:14.597Z,101220.80
2022-12-03T14:44:47.832Z,101223.71
2022-12-03T14:47:18.065Z,101230.22
2022-12-03T14:49:45.963Z,101237.64
2022-12-03T14:52:13.779Z,101231.16
2022-12-03T14:54:43.315Z,101231.23
2022-12-03T14:57:13.663Z,101224.37
2022-12-03T14:59:42.782Z,101238.13
2022-12-03T15:02:11.772Z,101226.88
2022-12-03T15:04:40.984Z,101232.08
2022-12-03T15:07:09.741Z,101228.95
2022-12-03T15:09:37.708Z,101221.65
2022-12-03T15:12:05.777Z,101231.36
2022-12-03T15:14:33.518Z,101236.20
2022-12-03T15:17:01.403Z,101232.15
2022-12-03T15:19:29.145Z,101242.64
2022-12-03T15:21:56.979Z,101234.57
2022-12-03T15:24:24.762Z,101227.24
2022-12-03T15:26:54.465Z,101234.05
2022-12-03T15:29:22.761Z,101238.55
2022-12-03T15:31:50.564Z,101241.04
2022-12-03T15:34:22.482Z,101241.47
2022-12-03T15:36:50.704Z,101235.41
2022-12-03T15:39:18.645Z,101237.97
2022-12-03T15:41:46.559Z,101239.24
2022-12-03T15:44:14.265Z,101236.79
2022-12-03T15:46:42.100Z,101237.70
2022-12-03T15:49:09.965Z,101242.61
2022-12-03T15:51:37.730Z,101242.25
2022-12-03T15:54:05.623Z,101238.23
2022-12-03T15:56:33.758Z,101241.56
2022-12-03T15:59:01.565Z,101244.41
2022-12-03T16:01:29.246Z,101242.45
2022-12-03T16:03:56.910Z,101250.52
2022-12-03T16:06:24.678Z,101234.44
2022-12-03T16:08:52.478Z,101236.46
2022-12-03T16:11:20.231Z,101231.59
2022-12-03T16:13:48.013Z,101232.48
2022-12-03T16:16:15.922Z,101237.77
2022-12-03T16:18:43.681Z,101239.05
2022-12-03T16:21:11.404Z,101232.57
2022-12-03T16:23:39.207Z,101230.12
2022-12-03T16:26:07.023Z,101222.08
2022-12-03T16:28:34.699Z,101229.34
2022-12-03T16:31:02.393Z,101221.75
2022-12-03T16:33:30.093Z,101214.09
2022-12-03T16:35:57.856Z,101208.96
2022-12-03T16:38:25.512Z,101214.98
2022-12-03T16:40:53.216Z,101211.28
2022-12-03T16:43:20.873Z,101209.26
2022-12-03T16:45:57.687Z,101195.16
2022-12-03T16:48:25.375Z,101200.95
2022-12-03T16:50:54.350Z,101207.82
2022-12-03T16:53:22.025Z,101214.29
2022-12-03T16:55:49.639Z,101206.74
2022-12-03T16:58:19.960Z,101203.53
2022-12-03T17:00:48.399Z,101203.96
2022-12-03T17:03:16.966Z,101199.52
2022-12-03T17:05:45.493Z,101197.48
2022-12-03T17:08:13.442Z,101206.41
2022-12-03T17:10:41.362Z,101189.87
2022-12-03T17:13:10.568Z,101196.34
2022-12-03T17:15:39.592Z,101203.63
2022-12-03T17:18:08.176Z,101189.12
2022-12-03T17:20:36.046Z,101202.00
2022-12-03T17:23:04.134Z,101184.14
2022-12-03T17:25:32.090Z,101187.77
2022-12-03T17:27:59.762Z,101184.57
2022-12-03T17:30:27.708Z,101195.09
2022-12-03T17:32:55.314Z,101204.35
2022-12-03T17:35:22.965Z,101196.34
2022-12-03T17:37:50.856Z,101201.48
2022-12-03T17:40:18.885Z,101190.55
2022-12-03T17:42:46.866Z,101192.16
2022-12-03T17:45:14.932Z,101189.31
2022-12-03T17:47:42.731Z,101189.63
2022-12-03T17:50:10.846Z,101185.98
2022-12-03T17:52:38.649Z,101176.63
2022-12-03T17:55:14.012Z,101176.20
2022-12-03T17:57:45.707Z,101170.96
2022-12-03T18:00:14.063Z,101169.00
2022-12-03T18:02:41.917Z,101167.83
2022-12-03T18:05:10.520Z,101175.87
2022-12-03T18:07:38.260Z,101162.98
2022-12-03T18:10:06.944Z,101165.34
2022-12-03T18:12:34.850Z,101162.98
2022-12-03T18:15:02.514Z,101159.75
2022-12-03T18:17:30.207Z,101160.20
2022-12-03T18:19:58.216Z,101158.51
2022-12-03T18:22:28.673Z,101161.35
2022-12-03T18:24:56.793Z,101164.62
2022-12-03T18:27:25.543Z,101171.12
2022-12-03T18:29:53.536Z,101185.26
2022-12-03T18:32:28.817Z,101169.95
2022-12-03T18:34:57.602Z,101166.32
2022-12-03T18:37:30.444Z,101176.00
2022-12-03T18:39:58.698Z,101175.94
2022-12-03T18:42:26.965Z,101167.76
2022-12-03T18:44:57.109Z,101157.69
2022-12-03T18:47:28.623Z,101158.90
2022-12-03T18:49:57.267Z,101167.76
2022-12-03T18:52:26.075Z,101158.12
2022-12-03T18:54:54.153Z,101165.05
2022-12-03T18:57:22.021Z,101159.75
2022-12-03T18:59:49.633Z,101160.20
2022-12-03T19:02:53.812Z,101146.90
2022-12-03T19:05:07.263Z,101158.27
2022-12-03T19:07:34.892Z,101149.80
2022-12-03T19:10:02.674Z,101149.88
2022-12-03T19:12:30.951Z,101151.09
2022-12-03T19:14:58.641Z,101156.35
2022-12-03T19:17:28.067Z,101150.66
2022-12-03T19:19:56.210Z,101150.27
2022-12-03T19:22:24.697Z,101144.61
2022-12-03T19:24:52.380Z,101155.47
2022-12-03T19:27:20.421Z,101157.43
2022-12-03T19:29:52.320Z,101156.55
2022-12-03T19:32:20.243Z,101149.32
2022-12-03T19:34:47.889Z,101136.40
2022-12-03T19:37:15.727Z,101136.40
2022-12-03T19:39:44.195Z,101153.38
2022-12-03T19:42:11.979Z,101147.72
2022-12-03T19:44:40.232Z,101140.45
2022-12-03T19:47:07.992Z,101142.05
2022-12-03T19:49:35.708Z,101151.77
2022-12-03T19:52:03.356Z,101151.31
2022-12-03T19:54:31.007Z,101151.77
2022-12-03T19:56:58.649Z,101149.32
2022-12-03T19:59:26.256Z,101145.30
2022-12-03T20:01:54.060Z,101140.52
2022-12-03T20:04:21.883Z,101144.15
2022-12-03T20:06:49.691Z,101144.94
2022-12-03T20:09:18.806Z,101137.68
2022-12-03T20:11:46.968Z,101130.45
2022-12-03T20:14:16.935Z,101142.13
2022-12-03T20:16:45.944Z,101139.60
2022-12-03T20:19:16.933Z,101143.59
2022-12-03T20:21:45.396Z,101135.48
2022-12-03T20:24:18.712Z,101140.39
2022-12-03T20:26:46.624Z,101135.52
2022-12-03T20:29:14.302Z,101124.27
2022-12-03T20:31:42.204Z,101121.91
2022-12-03T20:34:11.686Z,101123.91
2022-12-03T20:36:40.464Z,101130.02
2022-12-03T20:39:09.485Z,101142.91
2022-12-03T20:41:38.015Z,101141.70
2022-12-03T20:44:08.492Z,101122.73
2022-12-03T20:46:37.450Z,101121.59
2022-12-03T20:49:05.960Z,101134.51
2022-12-03T20:51:33.827Z,101128.88
2022-12-03T20:54:02.269Z,101131.73
2022-12-03T20:56:33.419Z,101122.44
2022-12-03T20:59:06.375Z,101129.70
2022-12-03T21:01:35.385Z,101116.72
2022-12-03T21:04:04.443Z,101115.93
2022-12-03T21:06:33.439Z,101122.83
2022-12-03T21:09:02.069Z,101122.30
2022-12-03T21:11:32.620Z,101118.71
2022-12-03T21:14:00.938Z,101119.43
2022-12-03T21:17:05.729Z,101122.21
2022-12-03T21:19:24.300Z,101122.57
2022-12-03T21:21:52.020Z,101120.54
2022-12-03T21:24:19.732Z,101115.73
2022-12-03T21:26:47.367Z,101126.62
2022-12-03T21:29:15.072Z,101116.48
2022-12-03T21:31:42.788Z,101121.30
2022-12-03T21:34:10.493Z,101120.87
2022-12-03T21:36:38.300Z,101109.16
2022-12-03T21:39:06.885Z,101104.75
2022-12-03T21:41:36.551Z,101106.41
2022-12-03T21:44:05.237Z,101112.92
2022-12-03T21:47:09.315Z,101115.37
2022-12-03T21:49:21.413Z,101114.55
2022-12-03T21:51:49.631Z,101124.66
2022-12-03T21:54:17.306Z,101124.23
2022-12-03T21:56:45.422Z,101112.56
2022-12-03T21:59:13.167Z,101119.43
2022-12-03T22:01:46.777Z,101121.85
2022-12-03T22:04:15.018Z,101118.25
2022-12-03T22:06:42.688Z,101118.22
2022-12-03T22:09:10.600Z,101110.53
2022-12-03T22:11:38.330Z,101116.09
2022-12-03T22:14:07.876Z,101102.82
2022-12-03T22:16:35.764Z,101108.12
2022-12-03T22:19:03.521Z,101109.36
2022-12-03T22:21:31.433Z,101106.58
2022-12-03T22:23:59.258Z,101107.82
2022-12-03T22:26:27.069Z,101110.63
2022-12-03T22:28:55.083Z,101106.58
2022-12-03T22:31:22.936Z,101110.24
2022-12-03T22:33:50.972Z,101110.96
2022-12-03T22:36:21.638Z,101108.90
2022-12-03T22:38:51.439Z,101113.74
2022-12-03T22:41:19.902Z,101100.82
2022-12-03T22:43:48.619Z,101097.98
2022-12-03T22:46:17.432Z,101098.77
2022-12-03T22:48:47.403Z,101106.09
2022-12-03T22:51:23.483Z,101102.82
2022-12-03T22:54:02.616Z,101097.55
2022-12-03T22:56:31.434Z,101093.07
2022-12-03T22:59:00.744Z,101091.11
2022-12-03T23:01:31.937Z,101087.84
2022-12-03T23:04:00.486Z,101084.63
2022-12-03T23:06:29.729Z,101082.61
2022-12-03T23:08:59.012Z,101078.98
2022-12-03T23:11:26.900Z,101089.05
2022-12-03T23:13:54.821Z,101082.19
2022-12-03T23:16:26.113Z,101073.32
2022-12-03T23:18:54.069Z,101087.05
2022-12-03T23:21:29.538Z,101081.34
2022-12-03T23:23:59.719Z,101080.09
2022-12-03T23:26:28.094Z,101078.00
2022-12-03T23:28:56.098Z,101074.70
2022-12-03T23:31:27.274Z,101072.99
2022-12-03T23:33:56.318Z,101069.62
2022-12-03T23:36:25.794Z,101062.20
2022-12-03T23:38:53.720Z,101063.74
2022-12-03T23:41:22.602Z,101064.04
2022-12-03T23:43:50.694Z,101069.27
2022-12-03T23:46:26.985Z,101068.45
2022-12-03T23:48:55.128Z,101070.15
2022-12-03T23:51:25.554Z,101075.64
2022-12-03T23:53:55.526Z,101076.82
2022-12-03T23:56:26.159Z,101077.57
2022-12-03T23:58:53.920Z,101072.34
